createdAt,value
2023-02-23T00:00:56.004Z,74.69
2023-02-23T00:03:23.070Z,75.38
2023-02-23T00:05:49.866Z,75.62
2023-02-23T00:08:16.829Z,76.03
2023-02-23T00:10:43.600Z,76.69
2023-02-23T00:13:10.533Z,76.69
2023-02-23T00:15:37.360Z,76.46
2023-02-23T00:18:05.949Z,76.85
2023-02-23T00:20:32.936Z,77.80
2023-02-23T00:22:59.786Z,77.49
2023-02-23T00:25:26.650Z,77.45
2023-02-23T00:27:53.679Z,77.56
2023-02-23T00:30:20.934Z,76.81
2023-02-23T00:32:51.093Z,77.20
2023-02-23T00:35:19.745Z,76.87
2023-02-23T00:37:48.674Z,77.58
2023-02-23T00:40:18.471Z,77.09
2023-02-23T00:42:47.285Z,77.69
2023-02-23T00:45:14.787Z,78.25
2023-02-23T00:47:44.136Z,77.24
2023-02-23T00:50:17.970Z,77.98
2023-02-23T00:52:47.720Z,77.95
2023-02-23T00:55:15.729Z,78.08
2023-02-23T00:57:42.735Z,80.84
2023-02-23T01:00:12.772Z,81.31
2023-02-23T01:02:39.750Z,80.83
2023-02-23T01:05:07.273Z,80.49
2023-02-23T01:07:34.326Z,80.21
2023-02-23T01:10:02.581Z,80.08
2023-02-23T01:12:30.122Z,79.88
2023-02-23T01:14:56.845Z,80.98
2023-02-23T01:17:23.556Z,80.74
2023-02-23T01:19:50.384Z,81.04
2023-02-23T01:22:17.221Z,81.16
2023-02-23T01:24:45.123Z,80.54
2023-02-23T01:27:13.489Z,80.99
2023-02-23T01:29:40.305Z,80.61
2023-02-23T01:32:07.617Z,81.33
2023-02-23T01:34:34.493Z,80.56
2023-02-23T01:37:01.259Z,80.69
2023-02-23T01:39:29.096Z,81.23
2023-02-23T01:41:56.705Z,80.62
2023-02-23T01:45:20.922Z,80.86
2023-02-23T01:47:51.620Z,80.75
2023-02-23T01:50:22.814Z,81.75
2023-02-23T01:52:55.443Z,81.67
2023-02-23T01:55:26.900Z,81.79
2023-02-23T01:58:02.495Z,82.63
2023-02-23T02:00:30.071Z,83.81
2023-02-23T02:03:01.266Z,85.56
2023-02-23T02:05:30.177Z,85.06
2023-02-23T02:07:58.557Z,85.07
2023-02-23T02:10:28.138Z,84.46
2023-02-23T02:12:57.471Z,84.17
2023-02-23T02:15:35.738Z,83.88
2023-02-23T02:18:17.075Z,83.58
2023-02-23T02:21:38.818Z,83.63
2023-02-23T02:24:41.690Z,83.72
2023-02-23T02:27:33.744Z,84.27
2023-02-23T02:31:00.822Z,84.57
2023-02-23T02:34:08.182Z,86.41
2023-02-23T02:37:10.294Z,87.33
2023-02-23T02:39:53.764Z,86.46
2023-02-23T02:42:34.081Z,86.43
2023-02-23T02:45:11.797Z,86.09
2023-02-23T02:47:47.672Z,85.63
2023-02-23T02:50:25.781Z,85.07
2023-02-23T02:53:02.720Z,84.19
2023-02-23T02:55:34.213Z,84.64
2023-02-23T02:58:05.713Z,84.82
2023-02-23T03:00:38.920Z,84.47
2023-02-23T03:03:06.099Z,84.78
2023-02-23T03:05:41.953Z,84.40
2023-02-23T03:08:22.599Z,83.68
2023-02-23T03:11:01.988Z,84.08
2023-02-23T03:13:46.273Z,85.69
2023-02-23T03:16:26.816Z,86.69
2023-02-23T03:19:13.450Z,87.07
2023-02-23T03:21:51.796Z,86.74
2023-02-23T03:24:34.571Z,86.98
2023-02-23T03:27:16.971Z,86.81
2023-02-23T03:29:55.300Z,87.66
2023-02-23T03:32:30.204Z,86.73
2023-02-23T03:35:07.358Z,86.93
2023-02-23T03:37:46.239Z,86.45
2023-02-23T03:40:23.593Z,86.73
2023-02-23T03:42:57.489Z,86.38
2023-02-23T03:45:35.873Z,86.11
2023-02-23T03:48:10.063Z,86.41
2023-02-23T03:50:42.980Z,85.70
2023-02-23T03:53:14.387Z,85.22
2023-02-23T03:55:51.364Z,85.33
2023-02-23T03:58:26.181Z,85.81
2023-02-23T04:00:57.246Z,85.53
2023-02-23T04:03:29.039Z,84.76
2023-02-23T04:05:58.210Z,84.62
2023-02-23T04:08:39.567Z,84.03
2023-02-23T04:11:20.071Z,84.97
2023-02-23T04:13:58.803Z,84.38
2023-02-23T04:16:30.385Z,84.11
2023-02-23T04:18:58.348Z,84.43
2023-02-23T04:21:25.446Z,84.36
2023-02-23T04:23:53.033Z,84.36
2023-02-23T04:26:21.663Z,84.05
2023-02-23T04:28:48.952Z,84.64
2023-02-23T04:31:16.191Z,84.06
2023-02-23T04:33:45.932Z,84.11
2023-02-23T04:36:15.094Z,85.21
2023-02-23T04:38:45.254Z,84.63
2023-02-23T04:41:12.657Z,85.44
2023-02-23T04:43:40.999Z,85.24
2023-02-23T04:46:07.972Z,85.04
2023-02-23T04:48:35.369Z,84.60
2023-02-23T04:51:02.365Z,84.39
2023-02-23T04:53:30.353Z,84.71
2023-02-23T04:55:57.321Z,84.40
2023-02-23T04:58:24.614Z,84.82
2023-02-23T05:00:53.355Z,84.86
2023-02-23T05:03:25.646Z,85.33
2023-02-23T05:05:53.050Z,85.99
2023-02-23T05:08:20.314Z,86.73
2023-02-23T05:10:47.464Z,87.65
2023-02-23T05:13:14.336Z,87.35
2023-02-23T05:15:41.356Z,87.38
2023-02-23T05:18:09.659Z,87.79
2023-02-23T05:20:36.759Z,87.24
2023-02-23T05:23:03.693Z,87.70
2023-02-23T05:25:30.602Z,88.41
2023-02-23T05:27:57.515Z,88.40
2023-02-23T05:30:24.414Z,88.59
2023-02-23T05:32:51.215Z,88.02
2023-02-23T05:35:19.469Z,88.38
2023-02-23T05:37:46.394Z,88.12
2023-02-23T05:40:14.239Z,87.29
2023-02-23T05:42:41.445Z,86.79
2023-02-23T05:45:08.646Z,86.21
2023-02-23T05:47:35.411Z,85.90
2023-02-23T05:50:03.427Z,85.87
2023-02-23T05:52:31.715Z,85.50
2023-02-23T05:54:58.682Z,84.61
2023-02-23T05:57:25.585Z,85.15
2023-02-23T05:59:52.505Z,84.44
2023-02-23T06:02:19.542Z,85.26
2023-02-23T06:04:46.313Z,85.03
2023-02-23T06:07:14.447Z,84.99
2023-02-23T06:09:44.460Z,85.50
2023-02-23T06:12:11.490Z,85.33
2023-02-23T06:14:38.521Z,85.85
2023-02-23T06:17:05.382Z,86.05
2023-02-23T06:19:32.221Z,86.39
2023-02-23T06:21:59.114Z,86.52
2023-02-23T06:24:26.254Z,86.25
2023-02-23T06:26:54.357Z,87.19
2023-02-23T06:29:21.120Z,88.13
2023-02-23T06:31:48.548Z,88.31
2023-02-23T06:34:15.407Z,88.00
2023-02-23T06:36:43.017Z,87.30
2023-02-23T06:39:11.762Z,87.21
2023-02-23T06:41:38.630Z,86.71
2023-02-23T06:44:07.020Z,86.49
2023-02-23T06:46:33.872Z,85.64
2023-02-23T06:49:02.158Z,86.08
2023-02-23T06:51:29.080Z,85.11
2023-02-23T06:53:55.901Z,85.59
2023-02-23T06:56:22.820Z,84.93
2023-02-23T06:58:49.719Z,86.18
2023-02-23T07:01:18.038Z,85.91
2023-02-23T07:03:44.952Z,86.10
2023-02-23T07:06:11.760Z,86.62
2023-02-23T07:08:41.591Z,86.50
2023-02-23T07:11:11.544Z,86.43
2023-02-23T07:13:40.158Z,85.89
2023-02-23T07:16:08.329Z,85.37
2023-02-23T07:18:36.543Z,84.28
2023-02-23T07:21:03.476Z,85.14
2023-02-23T07:23:30.181Z,84.05
2023-02-23T07:25:57.018Z,84.54
2023-02-23T07:28:24.372Z,83.39
2023-02-23T07:30:51.401Z,83.39
2023-02-23T07:33:18.179Z,83.07
2023-02-23T07:35:46.281Z,82.38
2023-02-23T07:38:13.302Z,83.91
2023-02-23T07:40:40.310Z,83.51
2023-02-23T07:43:07.566Z,83.46
2023-02-23T07:45:34.527Z,82.57
2023-02-23T07:48:01.791Z,82.96
2023-02-23T07:50:28.831Z,82.11
2023-02-23T07:52:57.071Z,80.66
2023-02-23T07:55:23.864Z,80.00
2023-02-23T07:57:51.809Z,79.58
2023-02-23T08:00:19.777Z,79.42
2023-02-23T08:02:54.960Z,77.75
2023-02-23T08:05:22.317Z,79.01
2023-02-23T08:07:49.352Z,79.43
2023-02-23T08:10:18.450Z,80.42
2023-02-23T08:12:45.416Z,82.17
2023-02-23T08:15:12.273Z,81.68
2023-02-23T08:17:40.376Z,83.55
2023-02-23T08:20:11.996Z,84.76
2023-02-23T08:22:49.016Z,84.93
2023-02-23T08:25:18.197Z,85.23
2023-02-23T08:27:45.280Z,85.00
2023-02-23T08:30:13.802Z,83.75
2023-02-23T08:32:43.628Z,84.49
2023-02-23T08:35:11.557Z,85.16
2023-02-23T08:37:38.337Z,83.96
2023-02-23T08:40:06.716Z,83.61
2023-02-23T08:42:35.052Z,82.78
2023-02-23T08:45:02.386Z,82.69
2023-02-23T08:47:30.332Z,82.36
2023-02-23T08:49:58.282Z,82.23
2023-02-23T08:52:25.136Z,81.06
2023-02-23T08:54:52.763Z,81.39
2023-02-23T08:57:19.529Z,82.87
2023-02-23T08:59:47.710Z,85.35
2023-02-23T09:02:15.606Z,84.66
2023-02-23T09:04:42.593Z,84.41
2023-02-23T09:07:16.078Z,84.32
2023-02-23T09:09:43.650Z,83.09
2023-02-23T09:12:12.631Z,81.96
2023-02-23T09:14:39.316Z,79.93
2023-02-23T09:17:07.667Z,76.70
2023-02-23T09:19:34.406Z,71.69
2023-02-23T09:22:01.512Z,68.39
2023-02-23T09:24:28.318Z,62.67
2023-02-23T09:26:55.422Z,62.25
2023-02-23T09:29:22.429Z,62.62
2023-02-23T09:31:49.744Z,62.60
2023-02-23T09:34:18.025Z,63.90
2023-02-23T09:36:45.096Z,63.21
2023-02-23T09:39:11.912Z,62.27
2023-02-23T09:42:10.173Z,59.30
2023-02-23T09:44:54.305Z,61.07
2023-02-23T09:47:36.945Z,58.08
2023-02-23T09:50:20.346Z,58.90
2023-02-23T09:52:56.407Z,54.94
2023-02-23T09:55:26.790Z,53.07
2023-02-23T09:57:57.988Z,52.77
2023-02-23T10:00:27.208Z,50.52
2023-02-23T10:03:16.541Z,48.69
2023-02-23T10:05:54.726Z,47.54
2023-02-23T10:08:39.049Z,48.70
2023-02-23T10:11:21.287Z,46.75
2023-02-23T10:14:04.327Z,45.91
2023-02-23T10:16:45.186Z,46.46
2023-02-23T10:19:24.937Z,46.33
2023-02-23T10:21:59.094Z,49.78
2023-02-23T10:24:33.650Z,55.50
2023-02-23T10:27:10.775Z,53.56
2023-02-23T10:29:46.208Z,52.89
2023-02-23T10:32:23.362Z,48.29
2023-02-23T10:34:55.394Z,45.71
2023-02-23T10:37:25.757Z,47.19
2023-02-23T10:39:54.254Z,48.03
2023-02-23T10:42:27.574Z,48.63
2023-02-23T10:44:56.823Z,48.99
2023-02-23T10:47:29.924Z,48.71
2023-02-23T10:49:58.866Z,46.80
2023-02-23T10:52:42.276Z,47.89
2023-02-23T10:55:25.312Z,42.55
2023-02-23T10:58:09.815Z,41.62
2023-02-23T11:00:40.191Z,39.74
2023-02-23T11:03:32.980Z,40.10
2023-02-23T11:06:00.779Z,46.12
2023-02-23T11:08:33.970Z,54.10
2023-02-23T11:11:24.032Z,56.13
2023-02-23T11:13:52.174Z,61.51
2023-02-23T11:19:21.189Z,64.62
2023-02-23T11:21:52.625Z,66.99
2023-02-23T11:24:26.465Z,68.41
2023-02-23T11:26:57.615Z,69.96
2023-02-23T11:29:32.109Z,68.91
2023-02-23T11:32:06.804Z,69.37
2023-02-23T11:34:41.568Z,69.75
2023-02-23T11:37:24.406Z,69.39
2023-02-23T11:43:38.159Z,67.51
2023-02-23T11:46:17.663Z,66.67
2023-02-23T11:48:52.435Z,67.21
2023-02-23T11:51:31.745Z,67.42
2023-02-23T11:54:00.917Z,68.36
2023-02-23T11:56:34.135Z,67.37
2023-02-23T11:59:06.609Z,66.67
2023-02-23T12:01:47.261Z,66.53
2023-02-23T12:04:28.625Z,66.39
2023-02-23T12:07:25.548Z,66.53
2023-02-23T12:10:06.602Z,66.35
2023-02-23T12:12:49.342Z,66.69
2023-02-23T12:15:32.812Z,65.84
2023-02-23T12:18:12.103Z,65.13
2023-02-23T12:20:45.884Z,64.94
2023-02-23T12:23:21.761Z,64.63
2023-02-23T12:25:56.740Z,64.21
2023-02-23T12:28:33.935Z,64.30
2023-02-23T12:31:13.706Z,62.86
2023-02-23T12:33:48.315Z,64.09
2023-02-23T12:36:38.898Z,63.35
2023-02-23T12:39:21.068Z,62.85
2023-02-23T12:41:58.736Z,62.32
2023-02-23T12:44:56.889Z,62.78
2023-02-23T12:47:40.261Z,62.80
2023-02-23T12:50:28.047Z,63.25
2023-02-23T12:53:07.884Z,63.96
2023-02-23T12:55:50.619Z,64.23
2023-02-23T12:58:33.614Z,63.06
2023-02-23T13:01:13.306Z,62.06
2023-02-23T13:04:26.781Z,62.45
2023-02-23T13:07:26.639Z,61.87
2023-02-23T13:10:14.384Z,62.41
2023-02-23T13:12:57.025Z,63.44
2023-02-23T13:15:44.120Z,63.68
2023-02-23T13:18:24.335Z,63.72
2023-02-23T13:21:02.378Z,63.77
2023-02-23T13:23:41.811Z,63.23
2023-02-23T13:26:27.932Z,63.80
2023-02-23T13:29:05.257Z,63.04
2023-02-23T13:31:38.094Z,63.26
2023-02-23T13:34:16.877Z,63.67
2023-02-23T13:36:45.182Z,63.32
2023-02-23T13:39:47.484Z,63.23
2023-02-23T13:42:39.977Z,62.98
2023-02-23T13:45:31.609Z,63.50
2023-02-23T13:48:13.339Z,63.30
2023-02-23T13:50:52.530Z,63.56
2023-02-23T13:53:37.599Z,64.44
2023-02-23T13:56:08.659Z,65.30
2023-02-23T13:58:37.211Z,64.59
2023-02-23T14:01:14.182Z,64.47
2023-02-23T14:03:52.029Z,64.46
2023-02-23T14:06:29.159Z,63.82
2023-02-23T14:09:00.489Z,63.47
2023-02-23T14:11:49.014Z,62.82
2023-02-23T14:14:42.029Z,63.30
2023-02-23T14:18:01.867Z,63.23
2023-02-23T14:20:52.052Z,63.50
2023-02-23T14:23:52.625Z,62.76
2023-02-23T14:26:44.280Z,61.07
2023-02-23T14:29:28.958Z,59.88
2023-02-23T14:32:29.405Z,59.06
2023-02-23T14:34:59.404Z,57.29
2023-02-23T14:37:34.306Z,58.46
2023-02-23T14:40:12.394Z,57.43
2023-02-23T14:42:40.670Z,57.61
2023-02-23T14:45:21.939Z,57.41
2023-02-23T14:47:51.779Z,57.47
2023-02-23T14:50:27.134Z,58.31
2023-02-23T14:52:57.068Z,58.37
2023-02-23T14:55:29.234Z,58.43
2023-02-23T14:57:57.333Z,59.69
2023-02-23T15:01:01.035Z,59.35
2023-02-23T15:04:51.617Z,59.12
2023-02-23T15:08:12.667Z,60.09
2023-02-23T15:11:29.173Z,59.99
2023-02-23T15:13:59.189Z,60.00
2023-02-23T15:16:32.997Z,61.00
2023-02-23T15:19:04.888Z,61.11
2023-02-23T15:21:31.809Z,61.20
2023-02-23T15:24:07.542Z,62.01
2023-02-23T15:26:38.566Z,62.37
2023-02-23T15:29:11.967Z,62.43
2023-02-23T15:31:39.038Z,62.35
2023-02-23T15:34:09.144Z,62.24
2023-02-23T15:36:39.657Z,61.98
2023-02-23T15:39:16.025Z,62.11
2023-02-23T15:41:49.156Z,61.89
2023-02-23T15:44:24.148Z,61.56
2023-02-23T15:46:55.899Z,61.50
2023-02-23T15:49:29.230Z,61.94
2023-02-23T15:52:01.966Z,61.16
2023-02-23T15:54:34.160Z,61.67
2023-02-23T15:57:08.717Z,61.14
2023-02-23T15:59:39.274Z,61.74
2023-02-23T16:02:16.388Z,61.96
2023-02-23T16:04:43.843Z,62.58
2023-02-23T16:07:19.473Z,62.15
2023-02-23T16:09:53.509Z,62.24
2023-02-23T16:12:29.011Z,61.77
2023-02-23T16:15:00.310Z,62.64
2023-02-23T16:17:35.231Z,62.58
2023-02-23T16:20:16.370Z,62.68
2023-02-23T16:22:45.921Z,62.39
2023-02-23T16:25:17.970Z,63.19
2023-02-23T16:28:02.595Z,62.80
2023-02-23T16:30:40.709Z,62.93
2023-02-23T16:33:16.708Z,63.61
2023-02-23T16:35:47.741Z,63.48
2023-02-23T16:38:24.963Z,64.19
2023-02-23T16:40:52.282Z,65.00
2023-02-23T16:43:20.703Z,65.28
2023-02-23T16:45:47.655Z,65.44
2023-02-23T16:48:15.908Z,65.81
2023-02-23T16:50:44.138Z,65.88
2023-02-23T16:53:12.282Z,65.88
2023-02-23T16:55:46.589Z,65.81
2023-02-23T16:58:19.550Z,66.27
2023-02-23T17:00:47.926Z,66.50
2023-02-23T17:03:20.064Z,66.50
2023-02-23T17:05:47.133Z,66.94
2023-02-23T17:08:13.928Z,66.89
2023-02-23T17:10:48.719Z,67.36
2023-02-23T17:13:19.491Z,67.19
2023-02-23T17:15:50.866Z,67.25
2023-02-23T17:18:18.545Z,67.65
2023-02-23T17:20:45.783Z,67.42
2023-02-23T17:23:18.323Z,67.38
2023-02-23T17:25:45.968Z,67.88
2023-02-23T17:28:15.843Z,68.29
2023-02-23T17:30:43.772Z,68.35
2023-02-23T17:33:14.583Z,68.29
2023-02-23T17:35:41.974Z,69.09
2023-02-23T17:38:10.337Z,70.15
2023-02-23T17:40:37.475Z,71.80
2023-02-23T17:43:07.181Z,73.24
2023-02-23T17:45:34.073Z,73.71
2023-02-23T17:48:01.210Z,74.69
2023-02-23T17:50:29.772Z,75.11
2023-02-23T17:52:57.822Z,76.11
2023-02-23T17:55:25.539Z,75.66
2023-02-23T17:57:52.683Z,75.92
2023-02-23T18:00:20.723Z,75.86
2023-02-23T18:02:47.700Z,75.17
2023-02-23T18:05:16.615Z,75.84
2023-02-23T18:07:48.065Z,75.05
2023-02-23T18:10:15.740Z,75.16
2023-02-23T18:12:42.796Z,75.26
2023-02-23T18:15:10.621Z,75.91
2023-02-23T18:17:37.370Z,76.64
2023-02-23T18:20:06.768Z,77.34
2023-02-23T18:22:33.848Z,76.88
2023-02-23T18:25:04.614Z,77.81
2023-02-23T18:27:31.412Z,78.11
2023-02-23T18:29:58.189Z,79.45
2023-02-23T18:32:25.422Z,79.59
2023-02-23T18:34:52.270Z,80.14
2023-02-23T18:37:19.353Z,80.26
2023-02-23T18:39:46.272Z,80.24
2023-02-23T18:42:15.723Z,81.14
2023-02-23T18:44:42.565Z,82.72
2023-02-23T18:47:09.468Z,82.09
2023-02-23T18:49:36.306Z,82.30
2023-02-23T18:52:03.264Z,81.64
2023-02-23T18:54:30.102Z,81.00
2023-02-23T18:56:57.503Z,81.42
2023-02-23T18:59:25.969Z,82.21
2023-02-23T19:01:53.017Z,82.82
2023-02-23T19:04:20.654Z,83.37
2023-02-23T19:06:48.409Z,82.83
2023-02-23T19:09:15.654Z,82.65
2023-02-23T19:11:43.356Z,82.74
2023-02-23T19:14:14.574Z,82.89
2023-02-23T19:16:44.375Z,82.75
2023-02-23T19:19:11.768Z,82.67
2023-02-23T19:21:39.666Z,82.55
2023-02-23T19:24:07.877Z,82.09
2023-02-23T19:26:36.643Z,82.14
2023-02-23T19:29:03.567Z,81.16
2023-02-23T19:31:30.646Z,81.34
2023-02-23T19:33:59.063Z,80.91
2023-02-23T19:36:28.531Z,81.05
2023-02-23T19:38:58.492Z,82.72
2023-02-23T19:41:28.053Z,82.59
2023-02-23T19:43:55.282Z,83.30
2023-02-23T19:46:22.245Z,84.18
2023-02-23T19:48:49.310Z,84.70
2023-02-23T19:51:17.931Z,85.40
2023-02-23T19:53:45.035Z,84.73
2023-02-23T19:56:14.876Z,84.49
2023-02-23T19:58:42.220Z,83.24
2023-02-23T20:01:12.381Z,83.32
2023-02-23T20:03:39.843Z,82.52
2023-02-23T20:06:08.150Z,83.50
2023-02-23T20:08:36.256Z,83.86
2023-02-23T20:11:06.026Z,84.21
2023-02-23T20:13:33.351Z,83.70
2023-02-23T20:16:01.783Z,82.95
2023-02-23T20:18:28.834Z,83.10
2023-02-23T20:20:55.779Z,85.51
2023-02-23T20:23:22.565Z,85.39
2023-02-23T20:25:50.910Z,85.83
2023-02-23T20:28:17.715Z,86.56
2023-02-23T20:30:46.433Z,87.17
2023-02-23T20:33:13.733Z,86.33
2023-02-23T20:35:41.620Z,86.71
2023-02-23T20:38:08.666Z,86.65
2023-02-23T20:40:35.985Z,85.39
2023-02-23T20:43:04.341Z,84.92
2023-02-23T20:45:31.145Z,84.75
2023-02-23T20:47:58.024Z,83.76
2023-02-23T20:50:27.262Z,83.83
2023-02-23T20:52:54.762Z,83.23
2023-02-23T20:55:21.573Z,84.11
2023-02-23T20:57:48.390Z,84.14
2023-02-23T21:00:18.103Z,83.89
2023-02-23T21:02:45.222Z,85.13
2023-02-23T21:05:12.061Z,87.02
2023-02-23T21:07:39.394Z,86.49
2023-02-23T21:10:08.071Z,85.83
2023-02-23T21:12:35.848Z,86.28
2023-02-23T21:15:04.112Z,87.20
2023-02-23T21:17:34.158Z,87.47
2023-02-23T21:20:01.462Z,87.21
2023-02-23T21:22:28.534Z,86.27
2023-02-23T21:24:55.370Z,85.88
2023-02-23T21:27:22.121Z,85.10
2023-02-23T21:29:49.490Z,84.60
2023-02-23T21:32:16.530Z,84.79
2023-02-23T21:34:44.725Z,83.20
2023-02-23T21:37:11.615Z,82.79
2023-02-23T21:39:38.447Z,83.63
2023-02-23T21:42:05.364Z,84.08
2023-02-23T21:44:32.548Z,83.36
2023-02-23T21:46:59.386Z,85.07
2023-02-23T21:49:26.850Z,85.48
2023-02-23T21:51:54.996Z,85.26
2023-02-23T21:54:24.055Z,85.75
2023-02-23T21:56:50.886Z,84.93
2023-02-23T21:59:17.636Z,84.84
2023-02-23T22:01:44.504Z,84.52
2023-02-23T22:04:14.264Z,84.30
2023-02-23T22:06:44.155Z,84.29
2023-02-23T22:09:13.175Z,84.42
2023-02-23T22:11:45.340Z,83.60
2023-02-23T22:14:12.969Z,84.48
2023-02-23T22:16:40.516Z,84.26
2023-02-23T22:19:08.114Z,84.16
2023-02-23T22:21:38.196Z,83.82
2023-02-23T22:24:06.626Z,84.74
2023-02-23T22:26:37.232Z,85.54
2023-02-23T22:29:05.372Z,85.94
2023-02-23T22:31:32.550Z,85.09
2023-02-23T22:33:59.465Z,85.97
2023-02-23T22:36:26.338Z,85.07
2023-02-23T22:38:57.984Z,85.28
2023-02-23T22:41:24.959Z,85.75
2023-02-23T22:43:53.070Z,85.47
2023-02-23T22:46:19.929Z,84.69
2023-02-23T22:48:46.836Z,84.98
2023-02-23T22:51:16.959Z,83.86
2023-02-23T22:53:43.945Z,84.70
2023-02-23T22:56:11.323Z,84.52
2023-02-23T22:58:38.102Z,84.61
2023-02-23T23:01:06.514Z,85.80
2023-02-23T23:03:38.102Z,86.25
2023-02-23T23:06:07.720Z,85.72
2023-02-23T23:08:38.759Z,86.00
2023-02-23T23:11:08.387Z,86.95
2023-02-23T23:13:38.570Z,87.41
2023-02-23T23:16:09.289Z,87.80
2023-02-23T23:18:37.658Z,87.38
2023-02-23T23:21:04.823Z,87.80
2023-02-23T23:23:31.699Z,87.63
2023-02-23T23:25:58.447Z,88.03
2023-02-23T23:28:25.262Z,87.37
2023-02-23T23:30:52.022Z,87.32
2023-02-23T23:33:20.245Z,87.88
2023-02-23T23:35:46.981Z,87.27
2023-02-23T23:38:13.787Z,86.48
2023-02-23T23:40:40.567Z,86.63
2023-02-23T23:43:07.514Z,86.51
2023-02-23T23:45:34.470Z,86.10
2023-02-23T23:48:01.421Z,85.84
2023-02-23T23:50:29.529Z,86.37
2023-02-23T23:52:56.281Z,86.84
2023-02-23T23:55:23.071Z,87.77
2023-02-23T23:57:49.863Z,88.19
